createdAt,value
2018-11-01T00:00:41.835Z,75.50
2018-11-01T00:02:43.973Z,75.70
2018-11-01T00:04:46.130Z,76.10
2018-11-01T00:06:48.311Z,76.00
2018-11-01T00:08:50.527Z,76.60
2018-11-01T00:10:52.749Z,76.70
2018-11-01T00:12:54.917Z,76.60
2018-11-01T00:14:57.141Z,77.20
2018-11-01T00:16:59.328Z,76.80
2018-11-01T00:19:01.541Z,76.70
2018-11-01T00:21:03.895Z,77.70
2018-11-01T00:23:06.084Z,77.70
2018-11-01T00:25:10.194Z,78.50
2018-11-01T00:27:12.363Z,79.00
2018-11-01T00:29:14.492Z,78.40
2018-11-01T00:31:16.610Z,79.00
2018-11-01T00:33:18.781Z,79.20
2018-11-01T00:35:20.965Z,78.80
2018-11-01T00:37:23.156Z,79.10
2018-11-01T00:39:25.318Z,78.80
2018-11-01T00:41:27.551Z,80.60
2018-11-01T00:43:29.703Z,80.40
2018-11-01T00:45:31.873Z,80.80
2018-11-01T00:47:34.302Z,82.00
2018-11-01T00:49:36.414Z,82.90
2018-11-01T00:51:38.550Z,83.50
2018-11-01T00:53:40.738Z,83.60
2018-11-01T00:55:42.879Z,84.60
2018-11-01T00:57:45.042Z,85.50
2018-11-01T00:59:47.212Z,85.90
2018-11-01T01:01:49.399Z,85.90
2018-11-01T01:03:51.907Z,86.10
2018-11-01T01:05:54.109Z,86.70
2018-11-01T01:07:56.285Z,88.10
2018-11-01T01:09:58.534Z,87.40
2018-11-01T01:12:00.813Z,87.40
2018-11-01T01:14:03.003Z,87.20
2018-11-01T01:16:05.522Z,87.10
2018-11-01T01:18:07.665Z,86.30
2018-11-01T01:20:15.519Z,87.30
2018-11-01T01:22:17.648Z,87.30
2018-11-01T01:24:19.787Z,88.20
2018-11-01T01:26:21.933Z,86.80
2018-11-01T01:28:24.084Z,87.30
2018-11-01T01:30:26.214Z,87.30
2018-11-01T01:32:28.402Z,87.40
2018-11-01T01:34:30.675Z,87.40
2018-11-01T01:36:32.835Z,87.10
2018-11-01T01:38:35.081Z,86.90
2018-11-01T01:40:37.244Z,87.30
2018-11-01T01:42:45.109Z,86.40
2018-11-01T01:44:47.247Z,87.30
2018-11-01T01:46:49.408Z,87.30
2018-11-01T01:48:51.637Z,87.30
2018-11-01T01:55:45.263Z,87.90
2018-11-01T01:57:47.397Z,87.80
2018-11-01T01:59:49.537Z,88.00
2018-11-01T02:01:51.705Z,88.70
2018-11-01T02:03:53.867Z,88.90
2018-11-01T02:05:56.029Z,89.20
2018-11-01T02:07:58.144Z,89.70
2018-11-01T02:10:00.364Z,89.20
2018-11-01T02:12:02.547Z,90.10
2018-11-01T02:14:05.448Z,89.80
2018-11-01T02:16:07.598Z,90.00
2018-11-01T02:18:09.731Z,90.00
2018-11-01T02:20:13.369Z,90.20
2018-11-01T02:22:15.627Z,90.40
2018-11-01T02:24:17.776Z,90.40
2018-11-01T05:54:46.174Z,92.40
2018-11-01T05:56:48.344Z,92.40
2018-11-01T05:58:50.567Z,92.70
2018-11-01T06:56:12.874Z,93.90
2018-11-01T06:58:15.269Z,93.80
2018-11-01T07:00:17.636Z,93.60
2018-11-01T07:02:20.088Z,93.50
2018-11-01T07:04:22.479Z,93.50
2018-11-01T07:06:24.841Z,93.30
2018-11-01T07:08:27.313Z,93.40
2018-11-01T07:10:29.671Z,93.10
2018-11-01T07:12:32.031Z,92.70
2018-11-01T07:14:34.308Z,92.50
2018-11-01T07:16:36.613Z,91.40
2018-11-01T07:18:38.873Z,91.20
2018-11-01T07:20:41.130Z,90.70
2018-11-01T07:22:44.014Z,88.80
2018-11-01T07:24:46.455Z,90.00
2018-11-01T07:26:48.803Z,87.20
2018-11-01T07:28:51.155Z,86.20
2018-11-01T07:30:54.543Z,83.70
2018-11-01T07:32:57.034Z,81.90
2018-11-01T07:34:59.466Z,81.10
2018-11-01T07:37:02.731Z,79.00
2018-11-01T07:39:07.151Z,77.00
2018-11-01T07:41:09.514Z,74.90
2018-11-01T07:43:11.976Z,74.10
2018-11-01T07:45:14.670Z,73.10
2018-11-01T07:47:17.114Z,70.20
2018-11-01T07:49:19.608Z,71.80
2018-11-01T07:51:22.158Z,68.00
2018-11-01T07:53:24.685Z,68.40
2018-11-01T07:55:27.154Z,69.00
2018-11-01T07:57:29.626Z,69.30
2018-11-01T07:59:32.036Z,69.00
2018-11-01T08:01:34.604Z,72.60
2018-11-01T08:03:37.130Z,72.40
2018-11-01T08:05:39.511Z,74.10
2018-11-01T08:07:42.252Z,73.40
2018-11-01T08:09:44.640Z,73.50
2018-11-01T08:11:47.131Z,74.00
2018-11-01T08:13:49.505Z,70.80
2018-11-01T08:15:51.965Z,75.70
2018-11-01T08:17:54.335Z,72.40
2018-11-01T08:19:56.951Z,75.70
2018-11-01T08:21:59.328Z,74.20
2018-11-01T08:24:01.726Z,75.50
2018-11-01T08:26:04.255Z,73.90
2018-11-01T08:28:06.834Z,72.30
2018-11-01T08:30:11.223Z,73.70
2018-11-01T08:32:13.772Z,74.50
2018-11-01T08:34:16.290Z,73.30
2018-11-01T08:36:18.757Z,72.00
2018-11-01T08:38:21.290Z,72.90
2018-11-01T08:40:23.867Z,69.90
2018-11-01T08:42:26.297Z,72.50
2018-11-01T15:30:15.732Z,98.30
2018-11-01T15:32:24.095Z,97.60
2018-11-01T15:34:26.844Z,99.00
2018-11-01T15:36:29.650Z,99.50
2018-11-01T15:38:32.428Z,99.00
2018-11-01T15:40:35.228Z,98.50
2018-11-01T15:42:38.157Z,98.40
2018-11-01T15:44:41.027Z,98.40
2018-11-01T15:46:43.912Z,97.60
2018-11-01T15:48:46.795Z,97.60
2018-11-01T15:50:49.687Z,97.90
2018-11-01T15:52:52.558Z,98.00
2018-11-01T15:54:55.520Z,98.10
2018-11-01T15:56:58.260Z,97.80
2018-11-01T15:59:01.131Z,98.10
2018-11-01T16:01:04.475Z,97.90
2018-11-01T16:03:07.428Z,97.60
2018-11-01T16:05:11.511Z,97.80
2018-11-01T16:07:14.437Z,97.90
2018-11-01T16:09:17.204Z,97.80
2018-11-01T16:11:20.047Z,98.00
2018-11-01T16:13:22.281Z,98.00
2018-11-01T16:15:24.561Z,98.00
2018-11-01T16:17:26.686Z,97.90
2018-11-01T16:19:28.855Z,98.30
2018-11-01T16:21:30.960Z,98.10
2018-11-01T16:23:33.059Z,97.90
2018-11-01T16:25:35.201Z,98.20
2018-11-01T16:27:40.569Z,98.20
2018-11-01T16:30:05.625Z,98.30
2018-11-01T16:32:07.759Z,98.60
2018-11-01T16:34:09.858Z,98.70
2018-11-01T16:36:11.969Z,98.80
2018-11-01T17:43:57.139Z,99.90
2018-11-01T17:45:59.260Z,99.90
2018-11-01T17:48:01.353Z,99.90
2018-11-01T17:50:05.728Z,99.90
2018-11-01T17:52:07.915Z,99.90
2018-11-01T17:54:15.631Z,99.90
2018-11-01T17:56:17.777Z,99.90
2018-11-01T17:58:19.907Z,99.90
2018-11-01T18:00:26.652Z,99.90
2018-11-01T18:02:28.799Z,99.90
2018-11-01T18:04:30.972Z,99.90
2018-11-01T18:06:33.160Z,99.90
2018-11-01T18:08:35.516Z,99.90
2018-11-01T18:10:37.496Z,99.90
2018-11-01T18:12:39.790Z,99.90
2018-11-01T18:14:41.961Z,99.90
2018-11-01T18:16:44.108Z,99.90
2018-11-01T18:18:46.285Z,99.90
2018-11-01T18:20:48.414Z,99.90
2018-11-01T18:22:50.628Z,99.90
2018-11-01T18:24:52.782Z,99.90
2018-11-01T18:26:54.905Z,99.90
2018-11-01T18:28:57.162Z,99.90
2018-11-01T18:30:59.226Z,99.90
2018-11-01T18:33:01.616Z,99.90
2018-11-01T18:35:03.863Z,99.90
2018-11-01T18:37:06.270Z,99.90
2018-11-01T18:39:08.991Z,99.90
2018-11-01T18:41:11.050Z,99.90
2018-11-01T18:43:13.246Z,99.90
2018-11-01T18:45:15.526Z,99.90
2018-11-01T18:47:17.608Z,99.90
2018-11-01T18:49:19.712Z,99.90
2018-11-01T18:51:21.783Z,99.90
2018-11-01T18:53:24.006Z,99.90
2018-11-01T18:55:26.102Z,99.90
2018-11-01T18:57:28.183Z,99.90
2018-11-01T18:59:30.290Z,99.90
2018-11-01T19:01:32.718Z,99.90
2018-11-01T19:03:34.811Z,99.90
2018-11-01T19:05:36.931Z,99.90
2018-11-01T19:07:39.422Z,99.90
2018-11-01T19:09:41.527Z,99.60
2018-11-01T19:11:43.627Z,98.50
2018-11-01T19:13:45.835Z,98.00
2018-11-01T19:15:47.833Z,97.20
2018-11-01T19:17:49.930Z,96.80
2018-11-01T19:19:52.043Z,96.70
2018-11-01T19:21:54.348Z,96.70
2018-11-01T19:23:56.303Z,95.60
2018-11-01T19:26:12.411Z,95.70
2018-11-01T19:28:16.255Z,95.30
2018-11-01T19:30:18.434Z,95.80
2018-11-01T19:55:56.845Z,96.70
2018-11-01T19:57:58.958Z,97.10
2018-11-01T20:00:01.408Z,97.00
2018-11-01T20:02:03.718Z,97.00
2018-11-01T20:04:05.993Z,97.00
2018-11-01T20:06:08.131Z,97.40
2018-11-01T20:08:10.606Z,97.80
2018-11-01T20:10:13.803Z,98.00
2018-11-01T20:12:15.986Z,98.10
2018-11-01T20:14:18.319Z,98.30
2018-11-01T20:16:20.583Z,98.70
2018-11-01T20:18:22.826Z,99.20
2018-11-01T20:20:24.955Z,99.10
2018-11-01T20:22:27.260Z,99.60
2018-11-01T20:24:29.671Z,99.40
2018-11-01T20:26:31.870Z,99.50
2018-11-01T20:28:34.012Z,99.40
2018-11-01T20:30:36.333Z,99.80
2018-11-01T20:32:38.590Z,99.60
2018-11-01T20:34:41.002Z,99.20
2018-11-01T20:36:43.245Z,98.90
2018-11-01T20:38:45.513Z,98.80
2018-11-01T20:40:47.729Z,98.80
2018-11-01T20:42:50.040Z,99.10
2018-11-01T20:44:52.274Z,98.70
2018-11-01T20:46:54.570Z,98.20
2018-11-01T20:48:56.782Z,98.50
2018-11-01T20:50:58.919Z,98.20
2018-11-01T20:53:01.035Z,98.30
2018-11-01T20:55:03.223Z,98.60
2018-11-01T20:57:05.469Z,98.90
2018-11-01T20:59:08.434Z,99.10
2018-11-01T21:01:10.835Z,99.50
2018-11-01T21:03:13.107Z,99.10
2018-11-01T21:05:15.463Z,99.00
2018-11-01T21:07:17.699Z,98.90
2018-11-01T21:09:19.990Z,99.00
2018-11-01T21:11:22.314Z,98.80
2018-11-01T21:13:24.459Z,98.70
2018-11-01T21:15:26.753Z,98.20
2018-11-01T21:17:28.903Z,98.10
2018-11-01T21:19:31.070Z,97.40
2018-11-01T21:21:33.368Z,97.40
2018-11-01T21:23:35.529Z,97.10
2018-11-01T21:25:37.649Z,97.10
2018-11-01T21:27:40.091Z,96.60
2018-11-01T21:29:42.348Z,97.00
2018-11-01T21:31:44.572Z,97.10
2018-11-01T21:33:46.807Z,97.10
2018-11-01T21:35:49.024Z,97.10
2018-11-01T21:37:51.622Z,96.60
2018-11-01T21:39:53.770Z,96.60
2018-11-01T21:41:56.043Z,96.70
2018-11-01T21:43:58.218Z,96.70
2018-11-01T21:46:00.406Z,96.50
2018-11-01T21:48:02.571Z,96.20
2018-11-01T21:50:04.775Z,96.00
2018-11-01T21:52:06.890Z,96.10
2018-11-01T21:54:10.059Z,96.10
2018-11-01T21:56:12.209Z,96.30
2018-11-01T21:58:14.338Z,96.30
2018-11-01T22:00:16.559Z,96.40
2018-11-01T22:02:18.709Z,96.50
2018-11-01T22:04:20.812Z,96.70
2018-11-01T22:06:22.964Z,96.40
2018-11-01T22:08:24.986Z,96.60
2018-11-01T22:10:27.135Z,96.90
2018-11-01T22:12:29.275Z,96.80
2018-11-01T22:14:31.377Z,97.30
2018-11-01T22:16:33.544Z,97.10
2018-11-01T22:18:35.665Z,96.70
2018-11-01T22:20:37.771Z,97.30
2018-11-01T22:22:39.911Z,97.70
2018-11-01T22:24:42.050Z,97.90
2018-11-01T22:26:44.172Z,98.20
2018-11-01T22:28:46.337Z,97.80
2018-11-01T22:30:48.410Z,98.30
2018-11-01T22:32:50.605Z,98.60
2018-11-01T22:34:52.797Z,98.40
2018-11-01T22:36:54.990Z,99.10
2018-11-01T22:38:57.180Z,98.90
2018-11-01T22:40:59.310Z,99.00
2018-11-01T22:43:01.602Z,99.40
2018-11-01T22:45:04.485Z,98.90
2018-11-01T22:47:06.721Z,99.00
2018-11-01T22:49:08.795Z,99.10
2018-11-01T22:51:10.918Z,98.70
2018-11-01T22:53:13.039Z,99.10
2018-11-01T22:55:15.153Z,98.80
2018-11-01T22:57:17.252Z,99.00
